Time;durP1;ratioP1;P1;durP2;ratioP2;P2;SDS_P1;SDS_P2;PMS_P1;PMS_P2;Temp;Humidity;BMP_temperature;BMP_pressure;BME280_temperature;BME280_humidity;BME280_pressure;Samples;Min_cycle;Max_cycle;Signal;HPM_P1;HPM_P2
2021/11/17 02:27:57;;;;;;;0.23;0.23;;;;;;;;;;5051033;28;20220;-60
2021/11/17 02:30:34;;;;;;;0.10;0.10;;;;;;;;;;5065057;28;20532;-60
2021/11/17 02:33:15;;;;;;;0.20;0.20;;;;;;;;;;5064236;28;20229;-60
2021/11/17 02:35:59;;;;;;;0.10;0.10;;;;;;;;;;5051785;28;20420;-60
2021/11/17 02:38:32;;;;;;;0.10;0.10;;;;;;;;;;5062227;28;20234;-59
2021/11/17 02:41:06;;;;;;;0.17;0.17;;;;;;;;;;5059244;28;20258;-59
2021/11/17 02:43:39;;;;;;;0.10;0.10;;;;;;;;;;5058749;28;20226;-59
2021/11/17 02:46:11;;;;;;;0.20;0.20;;;;;;;;;;5058998;28;20230;-60
2021/11/17 02:48:46;;;;;;;0.20;0.20;;;;;;;;;;5064440;28;20241;-59
2021/11/17 02:51:33;;;;;;;0.10;0.10;;;;;;;;;;5064463;28;20203;-60
2021/11/17 02:54:07;;;;;;;0.20;0.20;;;;;;;;;;5064087;28;20503;-60
2021/11/17 02:56:42;;;;;;;0.10;0.10;;;;;;;;;;5062639;28;20200;-59
2021/11/17 02:59:15;;;;;;;0.13;0.13;;;;;;;;;;5063408;28;20203;-60
2021/11/17 03:01:50;;;;;;;0.10;0.10;;;;;;;;;;5058322;28;20200;-59
2021/11/17 03:04:23;;;;;;;0.20;0.20;;;;;;;;;;5055166;28;20459;-59
2021/11/17 03:06:55;;;;;;;0.17;0.17;;;;;;;;;;5064491;28;20200;-60
2021/11/17 03:09:27;;;;;;;0.10;0.10;;;;;;;;;;5044694;28;20246;-59
2021/11/17 03:12:08;;;;;;;0.20;0.20;;;;;;;;;;5057247;28;20204;-60
2021/11/17 03:14:41;;;;;;;0.10;0.10;;;;;;;;;;5056086;28;20215;-59
2021/11/17 03:17:13;;;;;;;0.20;0.20;;;;;;;;;;5064343;28;20250;-59
2021/11/17 03:19:45;;;;;;;0.10;0.10;;;;;;;;;;5063557;28;20218;-59
2021/11/17 03:22:18;;;;;;;0.10;0.10;;;;;;;;;;5058490;28;20206;-60
2021/11/17 03:24:54;;;;;;;0.10;0.10;;;;;;;;;;5060724;28;20249;-60
2021/11/17 03:27:27;;;;;;;0.10;0.10;;;;;;;;;;5050279;28;20203;-60
2021/11/17 03:30:08;;;;;;;0.10;0.10;;;;;;;;;;5053897;28;20203;-58
2021/11/17 03:32:44;;;;;;;0.20;0.20;;;;;;;;;;5056169;28;20400;-61
2021/11/17 03:35:26;;;;;;;2.93;2.83;;;;;;;;;;5063224;28;20220;-60
2021/11/17 03:38:01;;;;;;;0.10;0.10;;;;;;;;;;5061568;28;20203;-59
2021/11/17 03:40:42;;;;;;;0.20;0.20;;;;;;;;;;5055738;28;20209;-60
2021/11/17 03:43:20;;;;;;;0.10;0.10;;;;;;;;;;5061825;28;20311;-60
2021/11/17 03:45:54;;;;;;;0.10;0.10;;;;;;;;;;5063456;28;20251;-61
2021/11/17 03:48:30;;;;;;;0.23;0.23;;;;;;;;;;5049080;28;20317;-62
2021/11/17 03:51:03;;;;;;;0.10;0.10;;;;;;;;;;5056019;28;20200;-60
2021/11/17 03:53:39;;;;;;;0.20;0.20;;;;;;;;;;5056990;28;20203;-60
2021/11/17 03:56:26;;;;;;;0.10;0.10;;;;;;;;;;5061720;28;20261;-60
2021/11/17 03:59:00;;;;;;;0.10;0.10;;;;;;;;;;5054433;28;20206;-60
2021/11/17 04:01:36;;;;;;;0.10;0.10;;;;;;;;;;5055161;28;20199;-60
2021/11/17 04:04:08;;;;;;;0.87;0.87;;;;;;;;;;5043414;28;20279;-61
2021/11/17 04:06:41;;;;;;;0.10;0.10;;;;;;;;;;5052778;28;20525;-59
2021/11/17 04:09:16;;;;;;;0.10;0.10;;;;;;;;;;5058928;28;20280;-61
2021/11/17 04:11:49;;;;;;;0.17;0.17;;;;;;;;;;5059238;28;20494;-60
2021/11/17 04:14:22;;;;;;;0.10;0.10;;;;;;;;;;5062848;28;20203;-59
2021/11/17 04:16:55;;;;;;;0.10;0.10;;;;;;;;;;5063212;28;20397;-60
2021/11/17 04:19:27;;;;;;;0.10;0.10;;;;;;;;;;5061729;28;20238;-60
2021/11/17 04:22:00;;;;;;;0.20;0.20;;;;;;;;;;5062822;28;20195;-60
2021/11/17 04:24:35;;;;;;;0.10;0.10;;;;;;;;;;5045698;28;20532;-60
2021/11/17 04:27:08;;;;;;;0.10;0.10;;;;;;;;;;5059277;28;20414;-60
2021/11/17 04:29:44;;;;;;;0.20;0.20;;;;;;;;;;5059179;28;20254;-61
2021/11/17 04:32:26;;;;;;;0.10;0.10;;;;;;;;;;5051114;28;20242;-60
2021/11/17 04:35:01;;;;;;;0.10;0.10;;;;;;;;;;5061408;28;20219;-60
2021/11/17 04:37:38;;;;;;;0.10;0.10;;;;;;;;;;5062611;28;20211;-61
2021/11/17 04:40:12;;;;;;;0.10;0.10;;;;;;;;;;5046574;28;20196;-60
2021/11/17 04:42:44;;;;;;;0.10;0.10;;;;;;;;;;5042992;28;20503;-60
2021/11/17 04:45:21;;;;;;;0.10;0.10;;;;;;;;;;5060061;28;20250;-59
2021/11/17 04:47:57;;;;;;;0.20;0.20;;;;;;;;;;5050107;28;20212;-60
2021/11/17 04:50:32;;;;;;;0.10;0.10;;;;;;;;;;5048452;28;20207;-60
2021/11/17 04:53:07;;;;;;;0.10;0.10;;;;;;;;;;5050598;28;20227;-61
2021/11/17 04:55:48;;;;;;;0.10;0.10;;;;;;;;;;5062390;28;20218;-60
2021/11/17 04:58:21;;;;;;;0.17;0.17;;;;;;;;;;5057489;28;20565;-60
2021/11/17 05:00:55;;;;;;;0.20;0.20;;;;;;;;;;5061801;28;20208;-60
2021/11/17 05:03:28;;;;;;;0.10;0.10;;;;;;;;;;5056496;28;20202;-60
2021/11/17 05:06:03;;;;;;;0.10;0.10;;;;;;;;;;5051767;28;20195;-60
2021/11/17 05:08:33;;;;;;;0.10;0.10;;;;;;;;;;5063862;28;20381;-60
2021/11/17 05:11:05;;;;;;;0.10;0.10;;;;;;;;;;5054146;28;20275;-60
2021/11/17 05:13:36;;;;;;;0.10;0.10;;;;;;;;;;5059854;28;20204;-61
2021/11/17 05:16:09;;;;;;;0.13;0.13;;;;;;;;;;5046487;28;20211;-61
2021/11/17 05:18:39;;;;;;;0.20;0.20;;;;;;;;;;5051983;28;20246;-60
2021/11/17 05:21:12;;;;;;;0.10;0.10;;;;;;;;;;5053066;28;20266;-59
2021/11/17 05:23:46;;;;;;;0.10;0.10;;;;;;;;;;5063652;28;20196;-60
2021/11/17 05:26:19;;;;;;;0.10;0.10;;;;;;;;;;5052021;28;20207;-59
2021/11/17 05:28:51;;;;;;;0.10;0.10;;;;;;;;;;5055602;28;20207;-59
2021/11/17 05:31:25;;;;;;;0.13;0.13;;;;;;;;;;5048122;28;20235;-60
2021/11/17 05:34:02;;;;;;;0.20;0.20;;;;;;;;;;5055327;28;20200;-59
2021/11/17 05:36:31;;;;;;;0.20;0.20;;;;;;;;;;5046312;28;20517;-59
2021/11/17 05:39:04;;;;;;;0.10;0.10;;;;;;;;;;5053703;28;20207;-60
2021/11/17 05:41:37;;;;;;;0.10;0.10;;;;;;;;;;5052043;28;20207;-61
2021/11/17 05:44:10;;;;;;;0.10;0.10;;;;;;;;;;5050738;28;20234;-60
2021/11/17 05:46:44;;;;;;;0.20;0.20;;;;;;;;;;5046334;28;20302;-60
2021/11/17 05:49:17;;;;;;;0.13;0.13;;;;;;;;;;5047042;28;20204;-59
2021/11/17 05:51:50;;;;;;;0.10;0.10;;;;;;;;;;5045864;28;20207;-58
2021/11/17 05:54:26;;;;;;;0.10;0.10;;;;;;;;;;5057153;28;20266;-60
2021/11/17 05:56:59;;;;;;;0.30;0.30;;;;;;;;;;5046390;28;20257;-59
2021/11/17 05:59:32;;;;;;;0.10;0.10;;;;;;;;;;5063875;28;20203;-59
2021/11/17 06:02:05;;;;;;;0.10;0.10;;;;;;;;;;5056357;28;20222;-60
2021/11/17 06:04:32;;;;;;;0.20;0.20;;;;;;;;;;5058964;28;20305;-60
2021/11/17 06:06:59;;;;;;;0.10;0.10;;;;;;;;;;5045275;28;20245;-60
2021/11/17 06:09:25;;;;;;;0.10;0.10;;;;;;;;;;5045017;28;20236;-61
2021/11/17 06:11:55;;;;;;;0.17;0.17;;;;;;;;;;5059987;28;20245;-60
2021/11/17 06:14:25;;;;;;;0.17;0.17;;;;;;;;;;5064767;28;20211;-61
2021/11/17 06:16:52;;;;;;;0.10;0.10;;;;;;;;;;5064867;28;20215;-61
2021/11/17 06:19:19;;;;;;;0.10;0.10;;;;;;;;;;5059931;28;20461;-60
2021/11/17 06:21:46;;;;;;;0.10;0.10;;;;;;;;;;5044977;28;20212;-60
2021/11/17 06:24:14;;;;;;;0.13;0.13;;;;;;;;;;5052477;28;20257;-60
2021/11/17 06:26:41;;;;;;;0.10;0.10;;;;;;;;;;5061106;28;20389;-60
2021/11/17 06:29:11;;;;;;;0.10;0.10;;;;;;;;;;5064791;28;20489;-61
2021/11/17 06:31:39;;;;;;;0.10;0.10;;;;;;;;;;5063853;28;20215;-61
2021/11/17 06:34:20;;;;;;;0.13;0.13;;;;;;;;;;5047207;28;20208;-60
2021/11/17 06:36:46;;;;;;;0.20;0.20;;;;;;;;;;5064652;28;20223;-61
2021/11/17 06:39:12;;;;;;;0.10;0.10;;;;;;;;;;5053867;28;20455;-61
2021/11/17 06:41:39;;;;;;;0.20;0.20;;;;;;;;;;5064698;28;20230;-61
2021/11/17 06:44:05;;;;;;;0.20;0.20;;;;;;;;;;5063147;28;20219;-61
2021/11/17 06:46:33;;;;;;;0.10;0.10;;;;;;;;;;5045085;28;20250;-61
2021/11/17 06:48:59;;;;;;;0.10;0.10;;;;;;;;;;5051905;28;20450;-60
2021/11/17 06:51:25;;;;;;;0.13;0.13;;;;;;;;;;5050661;28;20424;-60
2021/11/17 06:53:51;;;;;;;0.10;0.10;;;;;;;;;;5056124;28;20442;-60
2021/11/17 06:56:18;;;;;;;0.10;0.10;;;;;;;;;;5064173;28;20231;-61
2021/11/17 06:58:44;;;;;;;0.13;0.13;;;;;;;;;;5064648;28;20211;-60
2021/11/17 07:01:11;;;;;;;0.10;0.10;;;;;;;;;;5063873;28;20206;-59
2021/11/17 07:03:39;;;;;;;0.10;0.10;;;;;;;;;;5058439;28;20242;-61
2021/11/17 07:06:06;;;;;;;0.17;0.17;;;;;;;;;;5050350;28;20235;-60
2021/11/17 07:08:32;;;;;;;0.10;0.10;;;;;;;;;;5056259;28;20211;-60
2021/11/17 07:10:58;;;;;;;0.10;0.10;;;;;;;;;;5056063;28;20455;-59
2021/11/17 07:13:24;;;;;;;0.10;0.10;;;;;;;;;;5059878;28;20204;-67
2021/11/17 07:15:50;;;;;;;0.17;0.17;;;;;;;;;;5058086;28;20237;-69
2021/11/17 07:18:17;;;;;;;0.10;0.10;;;;;;;;;;5063085;28;20248;-67
2021/11/17 07:20:45;;;;;;;0.10;0.10;;;;;;;;;;5063273;28;20552;-69
2021/11/17 07:23:11;;;;;;;0.10;0.10;;;;;;;;;;5063526;28;20206;-69
2021/11/17 07:25:41;;;;;;;0.10;0.10;;;;;;;;;;5063140;28;20532;-68
2021/11/17 07:28:07;;;;;;;0.10;0.10;;;;;;;;;;5057094;28;20207;-68
2021/11/17 07:30:35;;;;;;;0.20;0.20;;;;;;;;;;5061653;28;20207;-68
2021/11/17 07:33:02;;;;;;;0.20;0.20;;;;;;;;;;5057769;28;20245;-70
2021/11/17 07:35:29;;;;;;;0.10;0.10;;;;;;;;;;5062829;28;20213;-69
2021/11/17 07:38:01;;;;;;;0.20;0.20;;;;;;;;;;5061508;28;20203;-70
2021/11/17 07:40:27;;;;;;;0.17;0.17;;;;;;;;;;5061138;28;20200;-70
2021/11/17 07:42:55;;;;;;;0.20;0.20;;;;;;;;;;5045521;28;20553;-70
2021/11/17 07:45:22;;;;;;;0.20;0.20;;;;;;;;;;5055805;28;20260;-70
2021/11/17 07:47:48;;;;;;;0.10;0.10;;;;;;;;;;5062808;28;20248;-68
2021/11/17 07:50:15;;;;;;;0.10;0.10;;;;;;;;;;5058037;28;20250;-69
2021/11/17 07:52:41;;;;;;;0.20;0.20;;;;;;;;;;5061609;28;20208;-68
2021/11/17 07:55:11;;;;;;;0.10;0.10;;;;;;;;;;5055468;28;20200;-68
2021/11/17 07:57:38;;;;;;;0.20;0.20;;;;;;;;;;5063535;28;20234;-71
2021/11/17 08:00:06;;;;;;;0.10;0.10;;;;;;;;;;5061608;28;20437;-69
2021/11/17 08:02:32;;;;;;;0.10;0.10;;;;;;;;;;5057095;28;20418;-69
2021/11/17 08:04:58;;;;;;;0.10;0.10;;;;;;;;;;5046632;28;20564;-67
2021/11/17 08:07:24;;;;;;;0.17;0.17;;;;;;;;;;5049540;28;20444;-70
2021/11/17 08:09:51;;;;;;;0.10;0.10;;;;;;;;;;5053113;28;20265;-69
2021/11/17 08:12:19;;;;;;;0.20;0.20;;;;;;;;;;5047488;28;20369;-68
2021/11/17 08:14:45;;;;;;;0.10;0.10;;;;;;;;;;5053896;28;20250;-69
2021/11/17 08:17:11;;;;;;;0.20;0.20;;;;;;;;;;5045741;28;20464;-70
2021/11/17 08:19:38;;;;;;;0.30;0.30;;;;;;;;;;5062517;28;20491;-69
2021/11/17 08:22:07;;;;;;;0.10;0.10;;;;;;;;;;5048463;28;20252;-69
2021/11/17 08:24:34;;;;;;;0.10;0.10;;;;;;;;;;5051138;28;20288;-70
2021/11/17 08:27:00;;;;;;;0.20;0.20;;;;;;;;;;5052577;28;20240;-69
2021/11/17 08:29:28;;;;;;;0.10;0.10;;;;;;;;;;5057345;28;20200;-69
2021/11/17 08:31:57;;;;;;;0.50;0.50;;;;;;;;;;5056387;28;20423;-69
2021/11/17 08:34:23;;;;;;;0.10;0.10;;;;;;;;;;5048953;28;20500;-69
2021/11/17 08:36:49;;;;;;;4.33;4.03;;;;;;;;;;5046264;28;20545;-68
2021/11/17 08:39:17;;;;;;;0.10;0.10;;;;;;;;;;5060900;28;20203;-68
2021/11/17 08:41:43;;;;;;;0.10;0.10;;;;;;;;;;5062805;28;20204;-69
2021/11/17 08:44:10;;;;;;;0.20;0.20;;;;;;;;;;5056853;28;20219;-69
2021/11/17 08:46:37;;;;;;;0.10;0.10;;;;;;;;;;5042940;28;20200;-69
2021/11/17 08:49:03;;;;;;;0.20;0.20;;;;;;;;;;5042975;28;20503;-68
2021/11/17 08:51:30;;;;;;;0.10;0.10;;;;;;;;;;5047817;28;20202;-68
2021/11/17 08:53:59;;;;;;;0.10;0.10;;;;;;;;;;5062950;28;20248;-67
2021/11/17 08:56:25;;;;;;;0.13;0.13;;;;;;;;;;5062407;28;20223;-68
2021/11/17 08:58:51;;;;;;;0.10;0.10;;;;;;;;;;5062226;28;20254;-68
2021/11/17 09:01:18;;;;;;;0.10;0.10;;;;;;;;;;5062029;28;20211;-68
2021/11/17 09:03:45;;;;;;;0.20;0.20;;;;;;;;;;5049982;28;20224;-67
2021/11/17 09:06:12;;;;;;;0.10;0.10;;;;;;;;;;5062241;28;20206;-68
2021/11/17 09:08:39;;;;;;;0.20;0.20;;;;;;;;;;5049007;28;20207;-68
2021/11/17 09:11:07;;;;;;;0.10;0.10;;;;;;;;;;5044433;28;20207;-64
2021/11/17 09:13:34;;;;;;;0.10;0.10;;;;;;;;;;5056997;28;20260;-68
2021/11/17 09:16:00;;;;;;;0.10;0.10;;;;;;;;;;5053638;28;20200;-68
2021/11/17 09:18:28;;;;;;;0.30;0.30;;;;;;;;;;5062183;28;20207;-68
2021/11/17 09:20:57;;;;;;;0.40;0.40;;;;;;;;;;5045349;28;20211;-68
2021/11/17 09:23:26;;;;;;;0.10;0.10;;;;;;;;;;5042377;28;20212;-69
2021/11/17 09:25:53;;;;;;;0.20;0.20;;;;;;;;;;5058636;28;20506;-68
2021/11/17 09:28:21;;;;;;;0.10;0.10;;;;;;;;;;5062108;28;20428;-70
2021/11/17 09:30:48;;;;;;;0.20;0.20;;;;;;;;;;5062262;28;20214;-68
2021/11/17 09:33:15;;;;;;;0.10;0.10;;;;;;;;;;5051769;28;20480;-68
2021/11/17 09:35:42;;;;;;;0.10;0.10;;;;;;;;;;5061599;28;20495;-68
2021/11/17 09:38:10;;;;;;;0.10;0.10;;;;;;;;;;5055756;28;20243;-69
2021/11/17 09:40:38;;;;;;;0.20;0.20;;;;;;;;;;5062020;28;20218;-69
2021/11/17 09:43:07;;;;;;;0.10;0.10;;;;;;;;;;5056272;28;20211;-69
2021/11/17 09:45:34;;;;;;;0.13;0.13;;;;;;;;;;5059501;28;20224;-68
2021/11/17 09:48:00;;;;;;;0.10;0.10;;;;;;;;;;5058164;28;20215;-69
2021/11/17 09:50:30;;;;;;;0.27;0.27;;;;;;;;;;5057126;28;20204;-71
2021/11/17 09:52:58;;;;;;;0.10;0.10;;;;;;;;;;5057491;28;20246;-68
2021/11/17 09:55:33;;;;;;;0.10;0.10;;;;;;;;;;5058182;28;20203;-70
2021/11/17 09:58:01;;;;;;;0.10;0.10;;;;;;;;;;5058197;28;20249;-71
2021/11/17 10:00:29;;;;;;;0.10;0.10;;;;;;;;;;5059093;28;20206;-70
2021/11/17 10:03:01;;;;;;;0.20;0.20;;;;;;;;;;5064694;28;20203;-68
2021/11/17 10:05:47;;;;;;;0.10;0.10;;;;;;;;;;5062434;28;20440;-68
2021/11/17 10:08:35;;;;;;;0.17;0.17;;;;;;;;;;5051093;28;20242;-69
2021/11/17 10:13:48;;;;;;;0.10;0.10;;;;;;;;;;5051590;28;20277;-69
2021/11/17 10:16:14;;;;;;;0.10;0.10;;;;;;;;;;5062771;28;20218;-69
2021/11/17 10:18:42;;;;;;;0.20;0.20;;;;;;;;;;5065100;28;20213;-69
2021/11/17 10:21:11;;;;;;;0.10;0.10;;;;;;;;;;5065629;28;20503;-68
2021/11/17 10:23:52;;;;;;;0.20;0.20;;;;;;;;;;5051468;28;20214;-68
2021/11/17 10:26:20;;;;;;;0.10;0.10;;;;;;;;;;5064648;28;20214;-70
2021/11/17 10:28:49;;;;;;;0.30;0.30;;;;;;;;;;5052471;28;20234;-70
2021/11/17 10:31:16;;;;;;;0.10;0.10;;;;;;;;;;5045238;28;20251;-69
2021/11/17 10:33:45;;;;;;;0.10;0.10;;;;;;;;;;5063875;28;20227;-69
2021/11/17 10:36:17;;;;;;;0.10;0.10;;;;;;;;;;5060227;28;20321;-68
2021/11/17 10:38:46;;;;;;;0.10;0.10;;;;;;;;;;5054781;28;20405;-68
2021/11/17 10:41:17;;;;;;;0.20;0.20;;;;;;;;;;5055499;28;20207;-67
2021/11/17 10:43:52;;;;;;;0.10;0.10;;;;;;;;;;5063149;28;20227;-68
2021/11/17 10:46:19;;;;;;;0.20;0.20;;;;;;;;;;5049184;28;20191;-68
2021/11/17 10:48:50;;;;;;;0.20;0.20;;;;;;;;;;5055442;28;20533;-68
2021/11/17 10:51:19;;;;;;;0.10;0.10;;;;;;;;;;5062642;28;20196;-69
2021/11/17 10:53:47;;;;;;;0.10;0.10;;;;;;;;;;5062821;28;20214;-67
2021/11/17 10:56:15;;;;;;;0.17;0.17;;;;;;;;;;5059319;28;20206;-68
2021/11/17 10:58:42;;;;;;;0.20;0.20;;;;;;;;;;5063934;28;20584;-68
2021/11/17 11:01:14;;;;;;;0.10;0.10;;;;;;;;;;5064229;28;20215;-68
2021/11/17 11:03:42;;;;;;;0.20;0.20;;;;;;;;;;5063212;28;20227;-69
2021/11/17 11:06:10;;;;;;;0.20;0.20;;;;;;;;;;5044245;28;20223;-67
2021/11/17 11:08:50;;;;;;;0.10;0.10;;;;;;;;;;5044492;28;20203;-68
2021/11/17 11:11:16;;;;;;;0.10;0.10;;;;;;;;;;5056387;28;20199;-66
2021/11/17 11:13:45;;;;;;;0.10;0.10;;;;;;;;;;5054598;28;20234;-68
2021/11/17 11:16:14;;;;;;;0.10;0.10;;;;;;;;;;5054664;28;20241;-66
2021/11/17 11:18:43;;;;;;;0.17;0.17;;;;;;;;;;5059165;28;20588;-68
2021/11/17 11:21:10;;;;;;;0.10;0.10;;;;;;;;;;5063228;28;20265;-69
2021/11/17 11:23:37;;;;;;;0.20;0.20;;;;;;;;;;5062172;28;20400;-66
2021/11/17 11:26:06;;;;;;;0.10;0.10;;;;;;;;;;5060265;28;20203;-66
2021/11/17 11:28:35;;;;;;;0.20;0.20;;;;;;;;;;5063872;28;20534;-66
2021/11/17 11:31:17;;;;;;;0.10;0.10;;;;;;;;;;5059263;28;20207;-66
2021/11/17 11:33:48;;;;;;;0.10;0.10;;;;;;;;;;5050829;28;20218;-68
2021/11/17 11:36:32;;;;;;;0.10;0.10;;;;;;;;;;5056553;28;20414;-66
2021/11/17 11:39:19;;;;;;;0.20;0.20;;;;;;;;;;5047361;28;20557;-67
2021/11/17 11:41:47;;;;;;;0.10;0.10;;;;;;;;;;5058180;28;20261;-67
2021/11/17 11:44:27;;;;;;;0.20;0.20;;;;;;;;;;5053749;28;20305;-67
2021/11/17 11:47:24;;;;;;;0.10;0.10;;;;;;;;;;5059328;28;20210;-67
2021/11/17 11:49:52;;;;;;;0.20;0.20;;;;;;;;;;5057964;28;20207;-66
2021/11/17 11:52:28;;;;;;;1.70;1.33;;;;;;;;;;5050101;28;20214;-66
2021/11/17 11:55:13;;;;;;;0.20;0.20;;;;;;;;;;5057683;28;20203;-66
2021/11/17 11:57:44;;;;;;;0.10;0.10;;;;;;;;;;5059137;28;20252;-65
2021/11/17 12:00:12;;;;;;;0.20;0.20;;;;;;;;;;5060401;28;20201;-65
2021/11/17 12:02:40;;;;;;;0.13;0.13;;;;;;;;;;5060467;28;20203;-65
2021/11/17 12:05:08;;;;;;;0.10;0.10;;;;;;;;;;5058660;28;20288;-65
2021/11/17 12:07:39;;;;;;;0.20;0.20;;;;;;;;;;5061641;28;20514;-66
2021/11/17 12:10:09;;;;;;;0.20;0.20;;;;;;;;;;5061288;28;20204;-66
2021/11/17 12:12:41;;;;;;;0.20;0.20;;;;;;;;;;5059673;28;20237;-65
2021/11/17 12:15:19;;;;;;;0.20;0.20;;;;;;;;;;5061006;28;20238;-66
2021/11/17 12:17:48;;;;;;;0.37;0.37;;;;;;;;;;5047766;28;20231;-67
2021/11/17 12:20:19;;;;;;;0.10;0.10;;;;;;;;;;5060418;28;20204;-68
2021/11/17 12:22:48;;;;;;;0.10;0.10;;;;;;;;;;5055669;28;20215;-67
2021/11/17 12:25:20;;;;;;;0.20;0.20;;;;;;;;;;5055883;28;20207;-67
2021/11/17 12:27:47;;;;;;;0.10;0.10;;;;;;;;;;5054879;28;20262;-68
2021/11/17 12:30:19;;;;;;;0.10;0.10;;;;;;;;;;5053673;28;20203;-67
2021/11/17 12:32:51;;;;;;;0.20;0.20;;;;;;;;;;5050878;28;20370;-67
2021/11/17 12:35:23;;;;;;;0.10;0.10;;;;;;;;;;5058904;28;20204;-66
2021/11/17 12:37:51;;;;;;;0.10;0.10;;;;;;;;;;5061049;28;20223;-66
2021/11/17 12:40:20;;;;;;;0.10;0.10;;;;;;;;;;5052332;28;20207;-66
2021/11/17 12:42:51;;;;;;;0.13;0.13;;;;;;;;;;5053836;28;20238;-66
2021/11/17 12:45:19;;;;;;;0.20;0.20;;;;;;;;;;5059708;28;20251;-67
2021/11/17 12:47:47;;;;;;;0.13;0.13;;;;;;;;;;5059098;28;20252;-67
2021/11/17 12:50:16;;;;;;;0.10;0.10;;;;;;;;;;5060688;28;20252;-68
2021/11/17 12:52:45;;;;;;;0.20;0.20;;;;;;;;;;5061503;28;20245;-66
2021/11/17 12:55:16;;;;;;;0.13;0.13;;;;;;;;;;5050071;28;20325;-67
2021/11/17 12:57:44;;;;;;;0.20;0.20;;;;;;;;;;5055774;28;20264;-67
2021/11/17 13:00:29;;;;;;;0.20;0.20;;;;;;;;;;5054996;28;20238;-67
2021/11/17 13:02:57;;;;;;;0.10;0.10;;;;;;;;;;5062241;28;20203;-67
2021/11/17 13:05:27;;;;;;;0.10;0.10;;;;;;;;;;5062104;28;20223;-67
2021/11/17 13:07:57;;;;;;;0.10;0.10;;;;;;;;;;5052799;28;20334;-67
2021/11/17 13:10:25;;;;;;;0.10;0.10;;;;;;;;;;5045563;28;20301;-68
2021/11/17 13:13:00;;;;;;;0.20;0.20;;;;;;;;;;5057853;28;20392;-69
2021/11/17 13:15:26;;;;;;;0.40;0.40;;;;;;;;;;5047233;28;20238;-66
2021/11/17 13:17:53;;;;;;;0.10;0.10;;;;;;;;;;5055133;28;20231;-66
2021/11/17 13:20:22;;;;;;;0.10;0.10;;;;;;;;;;5052520;28;20281;-67
2021/11/17 13:22:51;;;;;;;0.10;0.10;;;;;;;;;;5054116;28;20246;-66
2021/11/17 13:25:21;;;;;;;0.13;0.13;;;;;;;;;;5056511;28;20207;-67
2021/11/17 13:27:49;;;;;;;0.20;0.20;;;;;;;;;;5059071;28;20527;-67
2021/11/17 13:30:22;;;;;;;0.20;0.20;;;;;;;;;;5056955;28;20211;-67
2021/11/17 13:32:49;;;;;;;0.10;0.10;;;;;;;;;;5059925;28;20426;-67
2021/11/17 13:35:30;;;;;;;0.20;0.20;;;;;;;;;;5052421;28;20212;-68
2021/11/17 13:38:17;;;;;;;0.10;0.10;;;;;;;;;;5063975;28;20223;-68
2021/11/17 13:40:45;;;;;;;0.10;0.10;;;;;;;;;;5060395;28;20463;-67
2021/11/17 13:43:12;;;;;;;0.10;0.10;;;;;;;;;;5057378;28;20418;-67
2021/11/17 13:45:39;;;;;;;0.10;0.10;;;;;;;;;;5060526;28;20424;-69
2021/11/17 13:48:05;;;;;;;0.17;0.17;;;;;;;;;;5053291;28;20510;-67
2021/11/17 13:50:35;;;;;;;0.20;0.20;;;;;;;;;;5059295;28;20490;-66
2021/11/17 13:53:01;;;;;;;0.10;0.10;;;;;;;;;;5062527;28;20393;-67
2021/11/17 13:55:29;;;;;;;0.10;0.10;;;;;;;;;;5061038;28;20491;-67
2021/11/17 13:57:57;;;;;;;0.10;0.10;;;;;;;;;;5063644;28;20238;-68
2021/11/17 14:00:24;;;;;;;0.10;0.10;;;;;;;;;;5047737;28;20249;-68
2021/11/17 14:02:51;;;;;;;0.17;0.17;;;;;;;;;;5049508;28;20477;-67
2021/11/17 14:05:18;;;;;;;0.13;0.13;;;;;;;;;;5058957;28;20397;-69
2021/11/17 14:07:45;;;;;;;0.17;0.17;;;;;;;;;;5065381;28;20262;-68
2021/11/17 14:10:12;;;;;;;0.10;0.10;;;;;;;;;;5064686;28;20253;-69
2021/11/17 14:12:39;;;;;;;0.20;0.20;;;;;;;;;;5063549;28;20203;-67
2021/11/17 14:15:07;;;;;;;0.17;0.17;;;;;;;;;;5062205;28;20203;-68
2021/11/17 14:17:33;;;;;;;0.10;0.10;;;;;;;;;;5064639;28;20612;-69
2021/11/17 14:20:00;;;;;;;0.10;0.10;;;;;;;;;;5062491;28;20200;-67
2021/11/17 14:22:26;;;;;;;0.10;0.10;;;;;;;;;;5061845;28;20207;-68
2021/11/17 14:24:56;;;;;;;0.10;0.10;;;;;;;;;;5053106;28;20210;-68
2021/11/17 14:27:23;;;;;;;0.17;0.17;;;;;;;;;;5060378;28;20217;-66
2021/11/17 14:29:52;;;;;;;0.20;0.20;;;;;;;;;;5064602;28;20207;-67
2021/11/17 14:32:21;;;;;;;0.30;0.30;;;;;;;;;;5060968;28;20297;-67
2021/11/17 14:34:47;;;;;;;0.10;0.10;;;;;;;;;;5065152;28;20207;-66
2021/11/17 14:37:14;;;;;;;0.10;0.10;;;;;;;;;;5064555;28;20279;-68
2021/11/17 14:39:42;;;;;;;0.10;0.10;;;;;;;;;;5063409;28;20226;-68
2021/11/17 14:42:09;;;;;;;0.10;0.10;;;;;;;;;;5058612;28;20211;-68
2021/11/17 14:44:35;;;;;;;0.17;0.17;;;;;;;;;;5064500;28;20265;-68
2021/11/17 14:47:02;;;;;;;0.20;0.20;;;;;;;;;;5062402;28;20358;-68
2021/11/17 14:49:31;;;;;;;0.17;0.17;;;;;;;;;;5059777;28;20299;-68
2021/11/17 14:51:57;;;;;;;0.20;0.20;;;;;;;;;;5058279;28;20214;-67
2021/11/17 14:54:24;;;;;;;0.10;0.10;;;;;;;;;;5059926;28;20206;-68
2021/11/17 14:56:50;;;;;;;0.17;0.17;;;;;;;;;;5063488;28;20261;-68
2021/11/17 14:59:16;;;;;;;0.10;0.10;;;;;;;;;;5063006;28;20269;-68
2021/11/17 15:01:43;;;;;;;0.10;0.10;;;;;;;;;;5064045;28;20200;-68
2021/11/17 15:04:10;;;;;;;0.10;0.10;;;;;;;;;;5060497;28;20282;-68
2021/11/17 15:06:39;;;;;;;0.10;0.10;;;;;;;;;;5063918;28;20204;-68
2021/11/17 15:09:05;;;;;;;0.20;0.20;;;;;;;;;;5059914;28;20211;-68
2021/11/17 15:11:42;;;;;;;0.10;0.10;;;;;;;;;;5063183;28;20211;-70
2021/11/17 15:14:09;;;;;;;0.10;0.10;;;;;;;;;;5057929;28;20207;-69
2021/11/17 15:16:35;;;;;;;0.10;0.10;;;;;;;;;;5056281;28;20382;-69
2021/11/17 15:19:01;;;;;;;0.20;0.20;;;;;;;;;;5063043;28;20288;-69
2021/11/17 15:21:27;;;;;;;0.13;0.13;;;;;;;;;;5061236;28;20207;-69
2021/11/17 15:23:55;;;;;;;0.20;0.20;;;;;;;;;;5063293;28;20295;-69
2021/11/17 15:26:21;;;;;;;0.20;0.20;;;;;;;;;;5056197;28;20406;-69
2021/11/17 15:28:49;;;;;;;0.20;0.20;;;;;;;;;;5049768;28;20202;-69
2021/11/17 15:31:17;;;;;;;0.10;0.10;;;;;;;;;;5057500;28;20251;-69
2021/11/17 15:33:44;;;;;;;0.10;0.10;;;;;;;;;;5048716;28;20285;-69
2021/11/17 15:36:11;;;;;;;0.10;0.10;;;;;;;;;;5056531;28;20211;-70
2021/11/17 15:38:38;;;;;;;0.10;0.10;;;;;;;;;;5045562;28;20230;-70
2021/11/17 15:41:06;;;;;;;0.10;0.10;;;;;;;;;;5049191;28;20499;-68
2021/11/17 15:43:33;;;;;;;0.10;0.10;;;;;;;;;;5046471;28;20219;-69
2021/11/17 15:46:00;;;;;;;0.10;0.10;;;;;;;;;;5060652;28;20207;-69
2021/11/17 15:48:26;;;;;;;0.10;0.10;;;;;;;;;;5054522;28;20206;-67
2021/11/17 15:50:54;;;;;;;0.10;0.10;;;;;;;;;;5060211;28;20207;-67
2021/11/17 15:53:21;;;;;;;0.10;0.10;;;;;;;;;;5046586;28;20206;-67
2021/11/17 15:55:47;;;;;;;0.10;0.10;;;;;;;;;;5055190;28;20426;-67
2021/11/17 15:58:15;;;;;;;0.50;0.50;;;;;;;;;;5057658;28;20222;-67
2021/11/17 16:00:41;;;;;;;0.20;0.20;;;;;;;;;;5063286;28;20407;-67
2021/11/17 16:03:07;;;;;;;0.10;0.10;;;;;;;;;;5051774;28;20208;-68
2021/11/17 16:05:34;;;;;;;0.20;0.20;;;;;;;;;;5057441;28;20298;-68
2021/11/17 16:08:01;;;;;;;0.20;0.20;;;;;;;;;;5058399;28;20207;-68
2021/11/17 16:10:28;;;;;;;1.20;1.20;;;;;;;;;;5050615;28;20245;-69
2021/11/17 16:12:55;;;;;;;0.10;0.10;;;;;;;;;;5063360;28;20230;-68
2021/11/17 16:15:23;;;;;;;0.10;0.10;;;;;;;;;;5062133;28;20219;-68
2021/11/17 16:17:49;;;;;;;0.10;0.10;;;;;;;;;;5063361;28;20203;-68
2021/11/17 16:20:17;;;;;;;0.10;0.10;;;;;;;;;;5049946;28;20549;-69
2021/11/17 16:23:01;;;;;;;0.10;0.10;;;;;;;;;;5054734;28;20229;-69
2021/11/17 16:25:33;;;;;;;0.10;0.10;;;;;;;;;;5047574;28;20211;-68
2021/11/17 16:28:00;;;;;;;0.10;0.10;;;;;;;;;;5047336;28;20198;-69
2021/11/17 16:30:28;;;;;;;0.10;0.10;;;;;;;;;;5049890;28;20497;-69
2021/11/17 16:32:54;;;;;;;0.20;0.20;;;;;;;;;;5062294;28;20401;-68
2021/11/17 16:35:22;;;;;;;0.10;0.10;;;;;;;;;;5062904;28;20249;-67
2021/11/17 16:37:50;;;;;;;0.10;0.10;;;;;;;;;;5045744;28;20217;-68
2021/11/17 16:40:16;;;;;;;0.10;0.10;;;;;;;;;;5042636;28;20231;-68
2021/11/17 16:42:43;;;;;;;0.10;0.10;;;;;;;;;;5059467;28;20206;-68
2021/11/17 16:45:10;;;;;;;0.10;0.10;;;;;;;;;;5053246;28;20263;-68
2021/11/17 16:47:39;;;;;;;0.10;0.10;;;;;;;;;;5044184;28;20237;-68
2021/11/17 16:50:06;;;;;;;0.20;0.20;;;;;;;;;;5059251;28;20254;-68
2021/11/17 16:52:33;;;;;;;0.13;0.13;;;;;;;;;;5057846;28;20202;-68
2021/11/17 16:55:00;;;;;;;0.10;0.10;;;;;;;;;;5050292;28;20211;-69
2021/11/17 16:57:27;;;;;;;0.10;0.10;;;;;;;;;;5062809;28;20393;-68
2021/11/17 16:59:53;;;;;;;0.10;0.10;;;;;;;;;;5051633;28;20235;-68
2021/11/17 17:02:21;;;;;;;0.10;0.10;;;;;;;;;;5063360;28;20292;-68
2021/11/17 17:04:53;;;;;;;1.27;1.27;;;;;;;;;;5060590;28;20231;-69
2021/11/17 17:07:20;;;;;;;0.10;0.10;;;;;;;;;;5061334;28;20209;-69
2021/11/17 17:09:49;;;;;;;0.10;0.10;;;;;;;;;;5055465;28;20507;-68
2021/11/17 17:12:17;;;;;;;0.10;0.10;;;;;;;;;;5056877;28;20207;-69
2021/11/17 17:14:44;;;;;;;0.10;0.10;;;;;;;;;;5056782;28;20248;-68
2021/11/17 17:17:10;;;;;;;0.10;0.10;;;;;;;;;;5059550;28;20248;-65
2021/11/17 17:19:37;;;;;;;0.10;0.10;;;;;;;;;;5054795;28;20232;-64
2021/11/17 17:22:05;;;;;;;0.10;0.10;;;;;;;;;;5061055;28;20235;-64
2021/11/17 17:24:31;;;;;;;0.10;0.10;;;;;;;;;;5061067;28;20560;-66
2021/11/17 17:26:57;;;;;;;0.10;0.10;;;;;;;;;;5048715;28;20297;-64
2021/11/17 17:29:28;;;;;;;0.10;0.10;;;;;;;;;;5059382;28;20507;-70